sensor_id;sensor_type;location;lat;lon;timestamp;P1;durP1;ratioP1;P2;durP2;ratioP2
21099;SDS011;10708;50.824;4.408;2022-08-21T00:02:30;9.00;;;2.08;;
21099;SDS011;10708;50.824;4.408;2022-08-21T00:07:34;6.30;;;1.58;;
21099;SDS011;10708;50.824;4.408;2022-08-21T00:12:37;4.45;;;1.50;;
21099;SDS011;10708;50.824;4.408;2022-08-21T00:17:40;7.65;;;2.00;;
21099;SDS011;10708;50.824;4.408;2022-08-21T00:22:44;6.13;;;1.63;;
21099;SDS011;10708;50.824;4.408;2022-08-21T00:27:47;9.50;;;2.83;;
21099;SDS011;10708;50.824;4.408;2022-08-21T00:32:50;8.18;;;2.20;;
21099;SDS011;10708;50.824;4.408;2022-08-21T00:37:54;6.38;;;2.08;;
21099;SDS011;10708;50.824;4.408;2022-08-21T00:42:57;9.82;;;2.13;;
21099;SDS011;10708;50.824;4.408;2022-08-21T00:47:59;5.18;;;1.83;;
21099;SDS011;10708;50.824;4.408;2022-08-21T00:53:03;6.65;;;1.70;;
21099;SDS011;10708;50.824;4.408;2022-08-21T00:58:08;6.30;;;1.58;;
21099;SDS011;10708;50.824;4.408;2022-08-21T01:03:13;7.10;;;2.50;;
21099;SDS011;10708;50.824;4.408;2022-08-21T01:08:19;5.18;;;2.10;;
21099;SDS011;10708;50.824;4.408;2022-08-21T01:13:22;5.68;;;1.70;;
21099;SDS011;10708;50.824;4.408;2022-08-21T01:18:26;9.88;;;1.67;;
21099;SDS011;10708;50.824;4.408;2022-08-21T01:23:30;3.65;;;1.70;;
21099;SDS011;10708;50.824;4.408;2022-08-21T01:28:35;7.55;;;1.92;;
21099;SDS011;10708;50.824;4.408;2022-08-21T01:33:41;9.32;;;1.65;;
21099;SDS011;10708;50.824;4.408;2022-08-21T01:38:44;6.60;;;1.55;;
21099;SDS011;10708;50.824;4.408;2022-08-21T01:43:47;7.38;;;1.80;;
21099;SDS011;10708;50.824;4.408;2022-08-21T01:48:50;6.97;;;1.83;;
21099;SDS011;10708;50.824;4.408;2022-08-21T01:53:53;4.82;;;1.52;;
21099;SDS011;10708;50.824;4.408;2022-08-21T01:58:56;6.63;;;1.60;;
21099;SDS011;10708;50.824;4.408;2022-08-21T02:03:58;8.68;;;2.20;;
21099;SDS011;10708;50.824;4.408;2022-08-21T02:09:02;9.38;;;2.30;;
21099;SDS011;10708;50.824;4.408;2022-08-21T02:14:05;7.55;;;1.70;;
21099;SDS011;10708;50.824;4.408;2022-08-21T02:19:08;4.47;;;1.63;;
21099;SDS011;10708;50.824;4.408;2022-08-21T02:24:12;4.40;;;1.13;;
21099;SDS011;10708;50.824;4.408;2022-08-21T02:29:14;3.65;;;1.38;;
21099;SDS011;10708;50.824;4.408;2022-08-21T02:34:16;4.70;;;1.60;;
21099;SDS011;10708;50.824;4.408;2022-08-21T02:39:19;7.13;;;2.08;;
21099;SDS011;10708;50.824;4.408;2022-08-21T02:44:22;5.05;;;1.20;;
21099;SDS011;10708;50.824;4.408;2022-08-21T02:49:24;8.43;;;1.88;;
21099;SDS011;10708;50.824;4.408;2022-08-21T02:54:27;6.15;;;1.30;;
21099;SDS011;10708;50.824;4.408;2022-08-21T02:59:30;6.72;;;1.55;;
21099;SDS011;10708;50.824;4.408;2022-08-21T03:04:32;3.75;;;1.50;;
21099;SDS011;10708;50.824;4.408;2022-08-21T03:09:36;4.55;;;1.25;;
21099;SDS011;10708;50.824;4.408;2022-08-21T03:14:38;5.22;;;1.42;;
21099;SDS011;10708;50.824;4.408;2022-08-21T03:19:41;2.40;;;1.13;;
21099;SDS011;10708;50.824;4.408;2022-08-21T03:24:44;5.80;;;1.50;;
21099;SDS011;10708;50.824;4.408;2022-08-21T03:29:46;7.85;;;1.60;;
21099;SDS011;10708;50.824;4.408;2022-08-21T03:34:49;5.97;;;1.80;;
21099;SDS011;10708;50.824;4.408;2022-08-21T03:39:52;5.53;;;1.30;;
21099;SDS011;10708;50.824;4.408;2022-08-21T03:44:54;8.40;;;1.30;;
21099;SDS011;10708;50.824;4.408;2022-08-21T03:49:56;4.00;;;1.27;;
21099;SDS011;10708;50.824;4.408;2022-08-21T03:55:01;5.72;;;1.42;;
21099;SDS011;10708;50.824;4.408;2022-08-21T04:00:03;8.35;;;1.33;;
21099;SDS011;10708;50.824;4.408;2022-08-21T04:05:08;5.13;;;1.50;;
21099;SDS011;10708;50.824;4.408;2022-08-21T04:10:12;3.60;;;1.30;;
21099;SDS011;10708;50.824;4.408;2022-08-21T04:15:14;5.95;;;1.50;;
21099;SDS011;10708;50.824;4.408;2022-08-21T04:20:17;4.22;;;1.55;;
21099;SDS011;10708;50.824;4.408;2022-08-21T04:25:21;4.10;;;1.48;;
21099;SDS011;10708;50.824;4.408;2022-08-21T04:30:25;7.88;;;1.48;;
21099;SDS011;10708;50.824;4.408;2022-08-21T04:35:28;5.18;;;1.33;;
21099;SDS011;10708;50.824;4.408;2022-08-21T04:40:32;5.20;;;1.35;;
21099;SDS011;10708;50.824;4.408;2022-08-21T04:45:35;8.85;;;1.42;;
21099;SDS011;10708;50.824;4.408;2022-08-21T04:50:41;6.50;;;1.88;;
21099;SDS011;10708;50.824;4.408;2022-08-21T04:55:53;9.52;;;2.03;;
21099;SDS011;10708;50.824;4.408;2022-08-21T05:00:58;8.10;;;1.60;;
21099;SDS011;10708;50.824;4.408;2022-08-21T05:06:02;7.63;;;1.67;;
21099;SDS011;10708;50.824;4.408;2022-08-21T05:11:07;4.40;;;1.50;;
21099;SDS011;10708;50.824;4.408;2022-08-21T05:16:10;5.25;;;1.65;;
21099;SDS011;10708;50.824;4.408;2022-08-21T05:21:12;7.93;;;1.80;;
21099;SDS011;10708;50.824;4.408;2022-08-21T05:26:15;7.32;;;1.67;;
21099;SDS011;10708;50.824;4.408;2022-08-21T05:31:18;4.75;;;1.17;;
21099;SDS011;10708;50.824;4.408;2022-08-21T05:36:20;7.20;;;1.65;;
21099;SDS011;10708;50.824;4.408;2022-08-21T05:41:24;3.60;;;1.35;;
21099;SDS011;10708;50.824;4.408;2022-08-21T05:46:26;5.82;;;1.40;;
21099;SDS011;10708;50.824;4.408;2022-08-21T05:51:28;5.57;;;1.38;;
21099;SDS011;10708;50.824;4.408;2022-08-21T05:56:32;4.57;;;1.30;;
21099;SDS011;10708;50.824;4.408;2022-08-21T06:01:34;6.35;;;1.40;;
21099;SDS011;10708;50.824;4.408;2022-08-21T06:06:36;10.73;;;1.70;;
21099;SDS011;10708;50.824;4.408;2022-08-21T06:11:40;10.18;;;2.38;;
21099;SDS011;10708;50.824;4.408;2022-08-21T06:16:42;4.78;;;1.58;;
21099;SDS011;10708;50.824;4.408;2022-08-21T06:21:45;6.13;;;1.40;;
21099;SDS011;10708;50.824;4.408;2022-08-21T06:26:49;5.47;;;1.40;;
21099;SDS011;10708;50.824;4.408;2022-08-21T06:31:51;6.80;;;1.63;;
21099;SDS011;10708;50.824;4.408;2022-08-21T06:36:53;8.07;;;1.60;;
21099;SDS011;10708;50.824;4.408;2022-08-21T06:41:56;8.93;;;1.58;;
21099;SDS011;10708;50.824;4.408;2022-08-21T06:46:59;4.70;;;1.50;;
21099;SDS011;10708;50.824;4.408;2022-08-21T06:52:01;4.25;;;1.65;;
21099;SDS011;10708;50.824;4.408;2022-08-21T06:57:06;5.93;;;1.77;;
21099;SDS011;10708;50.824;4.408;2022-08-21T07:02:08;5.32;;;1.60;;
21099;SDS011;10708;50.824;4.408;2022-08-21T07:07:10;6.10;;;1.58;;
21099;SDS011;10708;50.824;4.408;2022-08-21T07:12:13;4.45;;;1.30;;
21099;SDS011;10708;50.824;4.408;2022-08-21T07:17:16;6.18;;;1.55;;
21099;SDS011;10708;50.824;4.408;2022-08-21T07:22:18;4.60;;;1.45;;
21099;SDS011;10708;50.824;4.408;2022-08-21T07:27:24;4.63;;;1.67;;
21099;SDS011;10708;50.824;4.408;2022-08-21T07:32:26;3.92;;;1.25;;
21099;SDS011;10708;50.824;4.408;2022-08-21T07:37:28;7.80;;;1.52;;
21099;SDS011;10708;50.824;4.408;2022-08-21T07:42:32;5.90;;;1.58;;
21099;SDS011;10708;50.824;4.408;2022-08-21T07:47:34;4.20;;;1.70;;
21099;SDS011;10708;50.824;4.408;2022-08-21T07:52:37;7.60;;;1.50;;
21099;SDS011;10708;50.824;4.408;2022-08-21T07:57:40;5.72;;;1.40;;
21099;SDS011;10708;50.824;4.408;2022-08-21T08:02:44;5.38;;;1.35;;
21099;SDS011;10708;50.824;4.408;2022-08-21T08:07:49;7.53;;;1.60;;
21099;SDS011;10708;50.824;4.408;2022-08-21T08:12:53;4.13;;;1.60;;
21099;SDS011;10708;50.824;4.408;2022-08-21T08:17:56;6.03;;;1.40;;
21099;SDS011;10708;50.824;4.408;2022-08-21T08:22:58;8.32;;;1.60;;
21099;SDS011;10708;50.824;4.408;2022-08-21T08:28:02;10.55;;;2.00;;
21099;SDS011;10708;50.824;4.408;2022-08-21T08:33:04;7.00;;;1.50;;
21099;SDS011;10708;50.824;4.408;2022-08-21T08:38:10;9.10;;;1.58;;
21099;SDS011;10708;50.824;4.408;2022-08-21T08:43:13;6.63;;;1.60;;
21099;SDS011;10708;50.824;4.408;2022-08-21T08:48:18;7.10;;;1.65;;
21099;SDS011;10708;50.824;4.408;2022-08-21T08:53:33;5.78;;;1.88;;
21099;SDS011;10708;50.824;4.408;2022-08-21T08:58:46;5.95;;;1.60;;
21099;SDS011;10708;50.824;4.408;2022-08-21T09:03:51;4.70;;;1.80;;
21099;SDS011;10708;50.824;4.408;2022-08-21T09:08:54;5.93;;;1.50;;
21099;SDS011;10708;50.824;4.408;2022-08-21T09:14:09;6.45;;;1.83;;
21099;SDS011;10708;50.824;4.408;2022-08-21T09:19:23;7.13;;;1.60;;
21099;SDS011;10708;50.824;4.408;2022-08-21T09:24:42;10.57;;;1.80;;
21099;SDS011;10708;50.824;4.408;2022-08-21T09:29:53;8.55;;;1.80;;
21099;SDS011;10708;50.824;4.408;2022-08-21T09:35:00;8.52;;;1.65;;
21099;SDS011;10708;50.824;4.408;2022-08-21T09:40:14;6.50;;;1.90;;
21099;SDS011;10708;50.824;4.408;2022-08-21T09:45:23;11.00;;;2.05;;
21099;SDS011;10708;50.824;4.408;2022-08-21T09:50:26;7.25;;;1.40;;
21099;SDS011;10708;50.824;4.408;2022-08-21T09:55:31;8.05;;;1.35;;
21099;SDS011;10708;50.824;4.408;2022-08-21T10:00:58;6.72;;;1.80;;
21099;SDS011;10708;50.824;4.408;2022-08-21T10:06:03;4.57;;;1.88;;
21099;SDS011;10708;50.824;4.408;2022-08-21T10:11:09;6.10;;;1.50;;
21099;SDS011;10708;50.824;4.408;2022-08-21T10:16:21;8.10;;;1.92;;
21099;SDS011;10708;50.824;4.408;2022-08-21T10:21:31;8.05;;;1.75;;
21099;SDS011;10708;50.824;4.408;2022-08-21T10:26:41;6.05;;;1.70;;
21099;SDS011;10708;50.824;4.408;2022-08-21T10:31:57;5.90;;;2.20;;
21099;SDS011;10708;50.824;4.408;2022-08-21T10:37:11;7.90;;;2.17;;
21099;SDS011;10708;50.824;4.408;2022-08-21T10:42:42;7.35;;;1.90;;
21099;SDS011;10708;50.824;4.408;2022-08-21T10:48:00;8.70;;;2.20;;
21099;SDS011;10708;50.824;4.408;2022-08-21T10:53:09;8.68;;;2.25;;
21099;SDS011;10708;50.824;4.408;2022-08-21T10:58:31;5.28;;;1.63;;
21099;SDS011;10708;50.824;4.408;2022-08-21T11:03:41;14.35;;;3.03;;
21099;SDS011;10708;50.824;4.408;2022-08-21T11:08:48;5.93;;;1.88;;
21099;SDS011;10708;50.824;4.408;2022-08-21T11:13:57;7.90;;;1.92;;
21099;SDS011;10708;50.824;4.408;2022-08-21T11:19:07;9.15;;;2.25;;
21099;SDS011;10708;50.824;4.408;2022-08-21T11:24:17;12.65;;;2.10;;
21099;SDS011;10708;50.824;4.408;2022-08-21T11:29:31;8.30;;;1.80;;
21099;SDS011;10708;50.824;4.408;2022-08-21T11:34:44;6.70;;;1.60;;
21099;SDS011;10708;50.824;4.408;2022-08-21T11:40:00;5.85;;;1.90;;
21099;SDS011;10708;50.824;4.408;2022-08-21T11:45:11;7.05;;;2.03;;
21099;SDS011;10708;50.824;4.408;2022-08-21T11:50:24;12.88;;;2.03;;
21099;SDS011;10708;50.824;4.408;2022-08-21T11:55:30;6.35;;;2.08;;
21099;SDS011;10708;50.824;4.408;2022-08-21T12:00:38;8.38;;;1.98;;
21099;SDS011;10708;50.824;4.408;2022-08-21T12:05:53;7.25;;;2.20;;
21099;SDS011;10708;50.824;4.408;2022-08-21T12:10:59;6.80;;;1.80;;
21099;SDS011;10708;50.824;4.408;2022-08-21T12:16:07;7.95;;;1.70;;
21099;SDS011;10708;50.824;4.408;2022-08-21T12:21:23;8.13;;;1.85;;
21099;SDS011;10708;50.824;4.408;2022-08-21T12:26:28;9.45;;;1.80;;
21099;SDS011;10708;50.824;4.408;2022-08-21T12:31:32;5.53;;;1.65;;
21099;SDS011;10708;50.824;4.408;2022-08-21T12:36:40;10.13;;;1.95;;
21099;SDS011;10708;50.824;4.408;2022-08-21T12:41:51;8.15;;;1.98;;
21099;SDS011;10708;50.824;4.408;2022-08-21T12:46:58;7.40;;;1.75;;
21099;SDS011;10708;50.824;4.408;2022-08-21T12:52:09;7.85;;;1.77;;
21099;SDS011;10708;50.824;4.408;2022-08-21T12:57:19;6.13;;;1.63;;
21099;SDS011;10708;50.824;4.408;2022-08-21T13:02:24;5.78;;;1.83;;
21099;SDS011;10708;50.824;4.408;2022-08-21T13:07:32;4.72;;;1.55;;
21099;SDS011;10708;50.824;4.408;2022-08-21T13:12:37;6.28;;;1.60;;
21099;SDS011;10708;50.824;4.408;2022-08-21T13:17:41;6.63;;;1.50;;
21099;SDS011;10708;50.824;4.408;2022-08-21T13:22:49;3.67;;;1.30;;
21099;SDS011;10708;50.824;4.408;2022-08-21T13:27:59;6.57;;;1.95;;
21099;SDS011;10708;50.824;4.408;2022-08-21T13:33:06;5.20;;;1.52;;
21099;SDS011;10708;50.824;4.408;2022-08-21T13:38:11;5.97;;;1.40;;
21099;SDS011;10708;50.824;4.408;2022-08-21T13:43:13;8.10;;;1.85;;
21099;SDS011;10708;50.824;4.408;2022-08-21T13:48:18;7.07;;;1.52;;
21099;SDS011;10708;50.824;4.408;2022-08-21T13:53:28;9.02;;;1.80;;
21099;SDS011;10708;50.824;4.408;2022-08-21T13:58:32;8.68;;;1.95;;
21099;SDS011;10708;50.824;4.408;2022-08-21T14:03:47;6.22;;;1.75;;
21099;SDS011;10708;50.824;4.408;2022-08-21T14:08:54;8.65;;;1.85;;
21099;SDS011;10708;50.824;4.408;2022-08-21T14:13:59;6.72;;;1.90;;
21099;SDS011;10708;50.824;4.408;2022-08-21T14:19:08;6.97;;;1.83;;
21099;SDS011;10708;50.824;4.408;2022-08-21T14:24:26;6.80;;;1.90;;
21099;SDS011;10708;50.824;4.408;2022-08-21T14:29:32;7.07;;;2.15;;
21099;SDS011;10708;50.824;4.408;2022-08-21T14:34:36;6.57;;;1.92;;
21099;SDS011;10708;50.824;4.408;2022-08-21T14:39:40;8.63;;;2.13;;
21099;SDS011;10708;50.824;4.408;2022-08-21T14:44:42;8.13;;;1.95;;
21099;SDS011;10708;50.824;4.408;2022-08-21T14:49:44;6.63;;;2.00;;
21099;SDS011;10708;50.824;4.408;2022-08-21T14:54:48;9.05;;;2.35;;
21099;SDS011;10708;50.824;4.408;2022-08-21T14:59:51;6.55;;;1.95;;
21099;SDS011;10708;50.824;4.408;2022-08-21T15:04:53;7.70;;;2.05;;
21099;SDS011;10708;50.824;4.408;2022-08-21T15:09:57;8.07;;;2.00;;
21099;SDS011;10708;50.824;4.408;2022-08-21T15:14:59;4.38;;;1.80;;
21099;SDS011;10708;50.824;4.408;2022-08-21T15:20:01;5.22;;;1.88;;
21099;SDS011;10708;50.824;4.408;2022-08-21T15:25:07;7.93;;;1.90;;
21099;SDS011;10708;50.824;4.408;2022-08-21T15:30:10;6.55;;;1.70;;
21099;SDS011;10708;50.824;4.408;2022-08-21T15:35:12;7.78;;;1.85;;
21099;SDS011;10708;50.824;4.408;2022-08-21T15:40:16;3.85;;;1.60;;
21099;SDS011;10708;50.824;4.408;2022-08-21T15:45:19;5.57;;;2.10;;
21099;SDS011;10708;50.824;4.408;2022-08-21T15:50:22;6.07;;;1.88;;
21099;SDS011;10708;50.824;4.408;2022-08-21T15:55:26;6.75;;;2.28;;
21099;SDS011;10708;50.824;4.408;2022-08-21T16:00:28;6.47;;;2.03;;
21099;SDS011;10708;50.824;4.408;2022-08-21T16:05:34;6.95;;;2.20;;
21099;SDS011;10708;50.824;4.408;2022-08-21T16:10:37;6.32;;;2.50;;
21099;SDS011;10708;50.824;4.408;2022-08-21T16:15:40;7.68;;;2.25;;
21099;SDS011;10708;50.824;4.408;2022-08-21T16:20:43;7.03;;;2.33;;
21099;SDS011;10708;50.824;4.408;2022-08-21T16:25:47;9.20;;;2.08;;
21099;SDS011;10708;50.824;4.408;2022-08-21T16:30:49;7.38;;;2.05;;
21099;SDS011;10708;50.824;4.408;2022-08-21T16:35:52;11.05;;;2.33;;
21099;SDS011;10708;50.824;4.408;2022-08-21T16:40:55;9.07;;;2.05;;
21099;SDS011;10708;50.824;4.408;2022-08-21T16:45:58;4.88;;;1.92;;
21099;SDS011;10708;50.824;4.408;2022-08-21T16:51:00;6.68;;;1.95;;
21099;SDS011;10708;50.824;4.408;2022-08-21T16:56:04;6.25;;;2.10;;
21099;SDS011;10708;50.824;4.408;2022-08-21T17:01:09;5.97;;;2.15;;
21099;SDS011;10708;50.824;4.408;2022-08-21T17:06:14;5.53;;;2.17;;
21099;SDS011;10708;50.824;4.408;2022-08-21T17:11:21;6.35;;;1.90;;
21099;SDS011;10708;50.824;4.408;2022-08-21T17:16:26;5.57;;;2.10;;
21099;SDS011;10708;50.824;4.408;2022-08-21T17:21:29;7.47;;;2.03;;
21099;SDS011;10708;50.824;4.408;2022-08-21T17:26:33;8.95;;;3.05;;
21099;SDS011;10708;50.824;4.408;2022-08-21T17:31:35;6.88;;;2.20;;
21099;SDS011;10708;50.824;4.408;2022-08-21T17:36:39;6.68;;;2.40;;
21099;SDS011;10708;50.824;4.408;2022-08-21T17:41:43;7.88;;;2.15;;
21099;SDS011;10708;50.824;4.408;2022-08-21T17:46:46;6.22;;;2.10;;
21099;SDS011;10708;50.824;4.408;2022-08-21T17:51:49;8.35;;;2.47;;
21099;SDS011;10708;50.824;4.408;2022-08-21T17:56:56;10.60;;;2.53;;
21099;SDS011;10708;50.824;4.408;2022-08-21T18:01:59;5.07;;;2.08;;
21099;SDS011;10708;50.824;4.408;2022-08-21T18:07:02;8.27;;;2.17;;
21099;SDS011;10708;50.824;4.408;2022-08-21T18:12:06;7.28;;;1.95;;
21099;SDS011;10708;50.824;4.408;2022-08-21T18:17:11;5.88;;;2.38;;
21099;SDS011;10708;50.824;4.408;2022-08-21T18:22:17;9.30;;;2.38;;
21099;SDS011;10708;50.824;4.408;2022-08-21T18:27:21;9.25;;;2.20;;
21099;SDS011;10708;50.824;4.408;2022-08-21T18:32:23;6.45;;;2.47;;
21099;SDS011;10708;50.824;4.408;2022-08-21T18:37:28;10.02;;;2.75;;
21099;SDS011;10708;50.824;4.408;2022-08-21T18:42:33;5.45;;;2.47;;
21099;SDS011;10708;50.824;4.408;2022-08-21T18:47:40;5.88;;;2.13;;
21099;SDS011;10708;50.824;4.408;2022-08-21T18:52:44;9.40;;;2.90;;
21099;SDS011;10708;50.824;4.408;2022-08-21T18:57:48;6.90;;;2.40;;
21099;SDS011;10708;50.824;4.408;2022-08-21T19:02:50;9.25;;;2.50;;
21099;SDS011;10708;50.824;4.408;2022-08-21T19:07:53;8.25;;;2.55;;
21099;SDS011;10708;50.824;4.408;2022-08-21T19:12:57;8.65;;;2.28;;
21099;SDS011;10708;50.824;4.408;2022-08-21T19:18:00;9.38;;;2.38;;
21099;SDS011;10708;50.824;4.408;2022-08-21T19:23:04;7.53;;;2.33;;
21099;SDS011;10708;50.824;4.408;2022-08-21T19:28:10;9.60;;;2.50;;
21099;SDS011;10708;50.824;4.408;2022-08-21T19:33:21;10.27;;;3.60;;
21099;SDS011;10708;50.824;4.408;2022-08-21T19:38:26;8.93;;;3.42;;
21099;SDS011;10708;50.824;4.408;2022-08-21T19:43:31;9.32;;;3.17;;
21099;SDS011;10708;50.824;4.408;2022-08-21T19:48:38;8.95;;;2.70;;
21099;SDS011;10708;50.824;4.408;2022-08-21T19:53:40;12.30;;;3.53;;
21099;SDS011;10708;50.824;4.408;2022-08-21T19:58:44;9.25;;;2.95;;
21099;SDS011;10708;50.824;4.408;2022-08-21T20:03:47;8.57;;;2.40;;
21099;SDS011;10708;50.824;4.408;2022-08-21T20:08:51;7.32;;;2.17;;
21099;SDS011;10708;50.824;4.408;2022-08-21T20:13:55;7.10;;;2.65;;
21099;SDS011;10708;50.824;4.408;2022-08-21T20:18:58;10.15;;;2.38;;
21099;SDS011;10708;50.824;4.408;2022-08-21T20:24:04;11.25;;;2.83;;
21099;SDS011;10708;50.824;4.408;2022-08-21T20:29:08;8.35;;;2.53;;
21099;SDS011;10708;50.824;4.408;2022-08-21T20:34:10;9.02;;;2.67;;
21099;SDS011;10708;50.824;4.408;2022-08-21T20:39:12;7.03;;;2.42;;
21099;SDS011;10708;50.824;4.408;2022-08-21T20:44:16;7.68;;;2.60;;
21099;SDS011;10708;50.824;4.408;2022-08-21T20:49:19;7.40;;;2.35;;
21099;SDS011;10708;50.824;4.408;2022-08-21T20:54:27;6.85;;;2.95;;
21099;SDS011;10708;50.824;4.408;2022-08-21T20:59:40;9.70;;;2.90;;
21099;SDS011;10708;50.824;4.408;2022-08-21T21:04:48;9.90;;;3.28;;
21099;SDS011;10708;50.824;4.408;2022-08-21T21:09:53;8.88;;;3.05;;
21099;SDS011;10708;50.824;4.408;2022-08-21T21:15:03;6.22;;;2.40;;
21099;SDS011;10708;50.824;4.408;2022-08-21T21:20:10;9.27;;;2.88;;
21099;SDS011;10708;50.824;4.408;2022-08-21T21:25:21;7.85;;;2.58;;
21099;SDS011;10708;50.824;4.408;2022-08-21T21:30:40;6.28;;;2.75;;
21099;SDS011;10708;50.824;4.408;2022-08-21T21:35:45;11.05;;;2.42;;
21099;SDS011;10708;50.824;4.408;2022-08-21T21:40:53;7.55;;;2.50;;
21099;SDS011;10708;50.824;4.408;2022-08-21T21:46:13;8.90;;;2.40;;
21099;SDS011;10708;50.824;4.408;2022-08-21T21:51:29;8.75;;;2.72;;
21099;SDS011;10708;50.824;4.408;2022-08-21T21:56:41;9.82;;;3.00;;
21099;SDS011;10708;50.824;4.408;2022-08-21T22:01:51;9.98;;;2.40;;
21099;SDS011;10708;50.824;4.408;2022-08-21T22:07:04;6.10;;;2.30;;
21099;SDS011;10708;50.824;4.408;2022-08-21T22:12:17;4.63;;;2.28;;
21099;SDS011;10708;50.824;4.408;2022-08-21T22:17:35;5.70;;;2.47;;
21099;SDS011;10708;50.824;4.408;2022-08-21T22:22:44;8.30;;;2.38;;
21099;SDS011;10708;50.824;4.408;2022-08-21T22:27:48;7.95;;;2.63;;
21099;SDS011;10708;50.824;4.408;2022-08-21T22:32:59;8.07;;;2.70;;
21099;SDS011;10708;50.824;4.408;2022-08-21T22:38:11;6.85;;;2.58;;
21099;SDS011;10708;50.824;4.408;2022-08-21T22:43:17;8.73;;;2.65;;
21099;SDS011;10708;50.824;4.408;2022-08-21T22:48:24;8.30;;;2.47;;
21099;SDS011;10708;50.824;4.408;2022-08-21T22:53:29;8.45;;;2.63;;
21099;SDS011;10708;50.824;4.408;2022-08-21T22:58:34;8.65;;;3.10;;
21099;SDS011;10708;50.824;4.408;2022-08-21T23:03:42;8.88;;;2.63;;
21099;SDS011;10708;50.824;4.408;2022-08-21T23:08:47;8.88;;;2.83;;
21099;SDS011;10708;50.824;4.408;2022-08-21T23:13:49;9.52;;;2.80;;
21099;SDS011;10708;50.824;4.408;2022-08-21T23:18:56;8.30;;;2.97;;
21099;SDS011;10708;50.824;4.408;2022-08-21T23:24:12;8.43;;;2.60;;
21099;SDS011;10708;50.824;4.408;2022-08-21T23:29:36;6.65;;;2.55;;
21099;SDS011;10708;50.824;4.408;2022-08-21T23:34:49;6.45;;;2.67;;
21099;SDS011;10708;50.824;4.408;2022-08-21T23:40:07;8.55;;;2.58;;
21099;SDS011;10708;50.824;4.408;2022-08-21T23:45:20;8.05;;;2.60;;
21099;SDS011;10708;50.824;4.408;2022-08-21T23:50:35;9.95;;;2.75;;
21099;SDS011;10708;50.824;4.408;2022-08-21T23:55:54;4.32;;;2.63;;
